createdAt,value
2023-05-06T00:00:45.929Z,14.48
2023-05-06T00:01:45.899Z,14.46
2023-05-06T00:02:45.986Z,14.44
2023-05-06T00:03:46.018Z,14.42
2023-05-06T00:04:45.925Z,14.41
2023-05-06T00:05:45.855Z,14.39
2023-05-06T00:06:45.856Z,14.38
2023-05-06T00:07:45.840Z,14.38
2023-05-06T00:08:45.822Z,14.38
2023-05-06T00:09:45.838Z,14.38
2023-05-06T00:10:45.805Z,14.38
2023-05-06T00:11:45.822Z,14.39
2023-05-06T00:12:45.819Z,14.38
2023-05-06T00:13:45.780Z,14.38
2023-05-06T00:14:45.771Z,14.38
2023-05-06T00:15:45.731Z,14.39
2023-05-06T00:16:45.812Z,14.39
2023-05-06T00:17:45.769Z,14.39
2023-05-06T00:18:45.680Z,14.39
2023-05-06T00:19:45.675Z,14.38
2023-05-06T00:20:45.671Z,14.39
2023-05-06T00:21:45.643Z,14.38
2023-05-06T00:22:45.632Z,14.38
2023-05-06T00:23:45.633Z,14.39
2023-05-06T00:24:45.608Z,14.38
2023-05-06T00:25:45.593Z,14.39
2023-05-06T00:26:45.644Z,14.39
2023-05-06T00:27:45.559Z,14.39
2023-05-06T00:28:45.550Z,14.41
2023-05-06T00:29:45.552Z,14.44
2023-05-06T00:30:45.521Z,14.42
2023-05-06T00:31:45.572Z,14.41
2023-05-06T00:32:45.593Z,14.39
2023-05-06T00:33:45.493Z,14.38
2023-05-06T00:34:45.491Z,14.35
2023-05-06T00:35:45.478Z,14.34
2023-05-06T00:36:45.444Z,14.31
2023-05-06T00:37:45.442Z,14.31
2023-05-06T00:38:45.422Z,14.31
2023-05-06T00:39:45.396Z,14.34
2023-05-06T00:40:45.382Z,14.34
2023-05-06T00:41:45.388Z,14.34
2023-05-06T00:42:45.381Z,14.31
2023-05-06T00:43:45.352Z,14.30
2023-05-06T00:44:45.340Z,14.30
2023-05-06T00:45:45.485Z,14.30
2023-05-06T00:46:45.320Z,14.30
2023-05-06T00:47:45.349Z,14.30
2023-05-06T00:48:45.289Z,14.29
2023-05-06T00:49:45.273Z,14.30
2023-05-06T00:50:45.239Z,14.29
2023-05-06T00:51:45.244Z,14.29
2023-05-06T00:52:45.310Z,14.31
2023-05-06T00:53:45.263Z,14.35
2023-05-06T00:54:45.200Z,14.36
2023-05-06T00:55:45.201Z,14.39
2023-05-06T00:56:45.187Z,14.36
2023-05-06T00:57:45.160Z,14.36
2023-05-06T00:58:45.157Z,14.36
2023-05-06T00:59:45.140Z,14.35
2023-05-06T01:00:45.179Z,14.34
2023-05-06T01:01:45.114Z,14.31
2023-05-06T01:02:47.944Z,14.31
2023-05-06T01:03:45.261Z,14.30
2023-05-06T01:04:45.074Z,14.30
2023-05-06T01:05:45.073Z,14.31
2023-05-06T01:06:45.049Z,14.31
2023-05-06T01:07:45.043Z,14.31
2023-05-06T01:08:45.020Z,14.30
2023-05-06T01:09:45.008Z,14.29
2023-05-06T01:10:45.031Z,14.29
2023-05-06T01:11:45.004Z,14.29
2023-05-06T01:12:44.997Z,14.27
2023-05-06T01:13:44.961Z,14.27
2023-05-06T01:14:44.935Z,14.27
2023-05-06T01:15:44.951Z,14.29
2023-05-06T01:16:44.940Z,14.26
2023-05-06T01:17:44.981Z,14.26
2023-05-06T01:18:44.914Z,14.24
2023-05-06T01:19:44.876Z,14.21
2023-05-06T01:20:44.888Z,14.17
2023-05-06T01:21:44.868Z,14.17
2023-05-06T01:22:44.846Z,14.16
2023-05-06T01:23:44.836Z,14.16
2023-05-06T01:24:44.799Z,14.17
2023-05-06T01:25:44.814Z,14.16
2023-05-06T01:26:44.795Z,14.17
2023-05-06T01:27:44.778Z,14.16
2023-05-06T01:28:44.757Z,14.16
2023-05-06T01:29:44.773Z,14.17
2023-05-06T01:30:44.744Z,14.17
2023-05-06T01:31:44.742Z,14.20
2023-05-06T01:32:44.763Z,14.19
2023-05-06T01:33:44.697Z,14.17
2023-05-06T01:34:44.705Z,14.16
2023-05-06T01:35:44.676Z,14.13
2023-05-06T01:36:44.778Z,14.12
2023-05-06T01:37:44.642Z,14.11
2023-05-06T01:38:44.613Z,14.12
2023-05-06T01:39:44.633Z,14.11
2023-05-06T01:40:44.588Z,14.11
2023-05-06T01:41:44.631Z,14.12
2023-05-06T01:42:44.577Z,14.12
2023-05-06T01:43:44.562Z,14.12
2023-05-06T01:44:44.550Z,14.11
2023-05-06T01:45:44.541Z,14.11
2023-05-06T01:46:44.689Z,14.12
2023-05-06T01:47:44.527Z,14.12
2023-05-06T01:48:44.521Z,14.12
2023-05-06T01:49:44.486Z,14.12
2023-05-06T01:50:44.526Z,14.11
2023-05-06T01:51:44.456Z,14.11
2023-05-06T01:52:44.463Z,14.11
2023-05-06T01:53:44.452Z,14.11
2023-05-06T01:54:44.422Z,14.11
2023-05-06T01:55:44.440Z,14.13
2023-05-06T01:56:44.403Z,14.13
2023-05-06T01:57:44.374Z,14.13
2023-05-06T01:58:44.349Z,14.11
2023-05-06T01:59:44.362Z,14.12
2023-05-06T02:00:44.341Z,14.12
2023-05-06T02:01:44.404Z,14.11
2023-05-06T02:02:44.416Z,14.09
2023-05-06T02:03:44.448Z,14.08
2023-05-06T02:04:44.291Z,14.09
2023-05-06T02:05:44.286Z,14.08
2023-05-06T02:06:44.273Z,14.08
2023-05-06T02:07:44.245Z,14.08
2023-05-06T02:08:44.263Z,14.08
2023-05-06T02:09:44.213Z,14.06
2023-05-06T02:10:44.220Z,14.06
2023-05-06T02:11:44.179Z,14.05
2023-05-06T02:12:44.317Z,14.05
2023-05-06T02:13:44.232Z,14.06
2023-05-06T02:14:44.170Z,14.06
2023-05-06T02:15:44.176Z,14.05
2023-05-06T02:16:44.157Z,14.04
2023-05-06T02:17:44.178Z,14.04
2023-05-06T02:18:44.103Z,14.02
2023-05-06T02:19:44.102Z,14.01
2023-05-06T02:20:44.073Z,14.01
2023-05-06T02:21:44.064Z,14.01
2023-05-06T02:22:44.077Z,13.98
2023-05-06T02:23:44.046Z,13.94
2023-05-06T02:24:44.008Z,13.93
2023-05-06T02:25:44.026Z,13.91
2023-05-06T02:26:43.977Z,13.88
2023-05-06T02:27:43.973Z,13.87
2023-05-06T02:28:43.967Z,13.86
2023-05-06T02:29:43.962Z,13.86
2023-05-06T02:30:43.956Z,13.84
2023-05-06T02:31:43.969Z,13.86
2023-05-06T02:32:43.921Z,13.83
2023-05-06T02:33:43.907Z,13.81
2023-05-06T02:34:43.891Z,13.80
2023-05-06T02:35:43.870Z,13.80
2023-05-06T02:36:43.848Z,13.80
2023-05-06T02:37:43.879Z,13.76
2023-05-06T02:38:43.822Z,13.76
2023-05-06T02:39:43.817Z,13.80
2023-05-06T02:40:43.823Z,13.80
2023-05-06T02:41:43.795Z,13.79
2023-05-06T02:42:43.804Z,13.76
2023-05-06T02:43:43.786Z,13.75
2023-05-06T02:44:43.905Z,13.75
2023-05-06T02:45:43.800Z,13.75
2023-05-06T02:46:43.743Z,13.75
2023-05-06T02:47:43.740Z,13.72
2023-05-06T02:48:43.700Z,13.72
2023-05-06T02:49:43.694Z,13.71
2023-05-06T02:50:43.712Z,13.72
2023-05-06T02:51:43.658Z,13.69
2023-05-06T02:52:43.640Z,13.66
2023-05-06T02:53:43.664Z,13.68
2023-05-06T02:54:43.619Z,13.66
2023-05-06T02:55:43.634Z,13.66
2023-05-06T02:56:43.586Z,13.65
2023-05-06T02:57:43.590Z,13.66
2023-05-06T02:58:43.579Z,13.66
2023-05-06T02:59:43.555Z,13.63
2023-05-06T03:00:43.556Z,13.63
2023-05-06T03:01:43.513Z,13.65
2023-05-06T03:02:43.532Z,13.65
2023-05-06T03:03:43.504Z,13.63
2023-05-06T03:04:43.497Z,13.63
2023-05-06T03:05:43.490Z,13.65
2023-05-06T03:06:43.563Z,13.63
2023-05-06T03:07:43.445Z,13.63
2023-05-06T03:08:43.434Z,13.63
2023-05-06T03:09:43.424Z,13.65
2023-05-06T03:10:43.434Z,13.66
2023-05-06T03:11:43.394Z,13.66
2023-05-06T03:12:43.423Z,13.65
2023-05-06T03:13:43.632Z,13.65
2023-05-06T03:14:43.348Z,13.63
2023-05-06T03:15:43.359Z,13.62
2023-05-06T03:16:43.339Z,13.61
2023-05-06T03:17:43.319Z,13.59
2023-05-06T03:18:43.339Z,13.59
2023-05-06T03:19:43.293Z,13.57
2023-05-06T03:20:43.421Z,13.57
2023-05-06T03:21:43.327Z,13.55
2023-05-06T03:22:43.253Z,13.54
2023-05-06T03:23:43.233Z,13.55
2023-05-06T03:24:43.228Z,13.51
2023-05-06T03:25:43.228Z,13.51
2023-05-06T03:26:43.210Z,13.51
2023-05-06T03:27:43.316Z,13.50
2023-05-06T03:28:55.181Z,13.48
2023-05-06T03:29:43.170Z,13.50
2023-05-06T03:30:43.138Z,13.51
2023-05-06T03:31:43.212Z,13.48
2023-05-06T03:32:43.153Z,13.47
2023-05-06T03:33:43.105Z,13.48
2023-05-06T03:34:43.196Z,13.47
2023-05-06T03:35:43.133Z,13.47
2023-05-06T03:36:43.108Z,13.44
2023-05-06T03:37:43.145Z,13.44
2023-05-06T03:38:43.092Z,13.41
2023-05-06T03:39:43.036Z,13.39
2023-05-06T03:40:43.021Z,13.39
2023-05-06T03:41:43.001Z,13.38
2023-05-06T03:42:42.981Z,13.36
2023-05-06T03:43:42.967Z,13.35
2023-05-06T03:44:42.951Z,13.36
2023-05-06T03:45:43.011Z,13.35
2023-05-06T03:46:42.954Z,13.35
2023-05-06T03:47:43.005Z,13.31
2023-05-06T03:48:42.906Z,13.29
2023-05-06T03:49:42.906Z,13.25
2023-05-06T03:50:42.882Z,13.25
2023-05-06T03:51:42.863Z,13.25
2023-05-06T03:52:42.855Z,13.25
2023-05-06T03:53:42.852Z,13.25
2023-05-06T03:54:42.835Z,13.25
2023-05-06T03:55:42.810Z,13.24
2023-05-06T03:56:42.813Z,13.25
2023-05-06T03:57:42.789Z,13.25
2023-05-06T03:58:42.806Z,13.24
2023-05-06T03:59:42.941Z,13.25
2023-05-06T04:00:42.769Z,13.25
2023-05-06T04:01:42.759Z,13.25
2023-05-06T04:02:42.870Z,13.25
2023-05-06T04:03:42.852Z,13.25
2023-05-06T04:04:42.707Z,13.25
2023-05-06T04:05:42.705Z,13.27
2023-05-06T04:06:42.686Z,13.28
2023-05-06T04:07:42.646Z,13.27
2023-05-06T04:08:42.658Z,13.27
2023-05-06T04:09:42.655Z,13.27
2023-05-06T04:10:42.604Z,13.25
2023-05-06T04:11:42.599Z,13.25
2023-05-06T04:12:42.631Z,13.25
2023-05-06T04:13:42.580Z,13.28
2023-05-06T04:14:42.552Z,13.28
2023-05-06T04:15:42.552Z,13.28
2023-05-06T04:16:42.653Z,13.29
2023-05-06T04:17:42.558Z,13.29
2023-05-06T04:18:42.511Z,13.28
2023-05-06T04:19:42.504Z,13.28
2023-05-06T04:20:42.466Z,13.29
2023-05-06T04:21:42.472Z,13.29
2023-05-06T04:22:42.441Z,13.32
2023-05-06T04:23:42.441Z,13.32
2023-05-06T04:24:42.464Z,13.31
2023-05-06T04:25:42.408Z,13.31
2023-05-06T04:26:42.396Z,13.32
2023-05-06T04:27:42.394Z,13.31
2023-05-06T04:28:42.367Z,13.31
2023-05-06T04:29:42.375Z,13.31
2023-05-06T04:30:42.352Z,13.31
2023-05-06T04:31:42.384Z,13.31
2023-05-06T04:32:42.401Z,13.31
2023-05-06T04:33:42.316Z,13.31
2023-05-06T04:34:42.307Z,13.32
2023-05-06T04:35:42.289Z,13.32
2023-05-06T04:36:42.289Z,13.32
2023-05-06T04:37:42.261Z,13.32
2023-05-06T04:38:42.253Z,13.36
2023-05-06T04:39:42.241Z,13.38
2023-05-06T04:40:42.210Z,13.41
2023-05-06T04:41:42.206Z,13.41
2023-05-06T04:42:42.216Z,13.43
2023-05-06T04:43:42.182Z,13.44
2023-05-06T04:44:42.182Z,13.43
2023-05-06T04:45:42.188Z,13.46
2023-05-06T04:46:42.144Z,13.48
2023-05-06T04:47:42.172Z,13.51
2023-05-06T04:48:42.108Z,13.55
2023-05-06T04:49:42.133Z,13.57
2023-05-06T04:50:42.082Z,13.65
2023-05-06T04:51:42.091Z,13.66
2023-05-06T04:52:42.062Z,13.72
2023-05-06T04:53:42.066Z,13.79
2023-05-06T04:54:44.171Z,13.83
2023-05-06T04:55:42.025Z,13.88
2023-05-06T04:56:42.005Z,13.93
2023-05-06T04:57:42.013Z,14.01
2023-05-06T04:58:41.998Z,14.06
2023-05-06T04:59:42.005Z,14.13
2023-05-06T05:00:41.951Z,14.21
2023-05-06T05:01:42.002Z,14.26
2023-05-06T05:02:42.017Z,14.31
2023-05-06T05:03:41.934Z,14.39
2023-05-06T05:04:41.918Z,14.45
2023-05-06T05:05:41.887Z,14.52
2023-05-06T05:06:41.903Z,14.56
2023-05-06T05:07:41.874Z,14.61
2023-05-06T05:08:41.844Z,14.69
2023-05-06T05:09:41.848Z,14.79
2023-05-06T05:10:41.860Z,14.93
2023-05-06T05:11:41.810Z,14.98
2023-05-06T05:12:41.852Z,15.01
2023-05-06T05:13:41.782Z,15.04
2023-05-06T05:14:41.801Z,15.05
2023-05-06T05:15:41.774Z,15.09
2023-05-06T05:16:41.780Z,15.13
2023-05-06T05:17:41.762Z,15.15
2023-05-06T05:18:41.719Z,15.15
2023-05-06T05:19:41.717Z,15.16
2023-05-06T05:20:41.694Z,15.18
2023-05-06T05:21:41.673Z,15.18
2023-05-06T05:22:41.677Z,15.19
2023-05-06T05:23:41.646Z,15.19
2023-05-06T05:24:41.645Z,15.19
2023-05-06T05:25:41.628Z,15.20
2023-05-06T05:26:41.630Z,15.22
2023-05-06T05:27:41.590Z,15.20
2023-05-06T05:28:41.583Z,15.23
2023-05-06T05:29:41.617Z,15.23
2023-05-06T05:30:41.589Z,15.25
2023-05-06T05:31:41.727Z,15.25
2023-05-06T05:32:41.573Z,15.28
2023-05-06T05:33:41.595Z,15.30
2023-05-06T05:34:41.545Z,15.28
2023-05-06T05:35:41.498Z,15.30
2023-05-06T05:36:41.496Z,15.28
2023-05-06T05:37:41.483Z,15.30
2023-05-06T05:38:41.461Z,15.30
2023-05-06T05:39:41.474Z,15.31
2023-05-06T05:40:41.440Z,15.28
2023-05-06T05:41:41.414Z,15.27
2023-05-06T05:42:41.399Z,15.28
2023-05-06T05:43:41.632Z,15.31
2023-05-06T05:44:41.419Z,15.28
2023-05-06T05:45:41.462Z,15.28
2023-05-06T05:46:41.383Z,15.27
2023-05-06T05:47:41.371Z,15.28
2023-05-06T05:48:41.339Z,15.27
2023-05-06T05:49:41.312Z,15.27
2023-05-06T05:50:41.299Z,15.27
2023-05-06T05:51:41.280Z,15.28
2023-05-06T05:52:41.308Z,15.28
2023-05-06T05:53:41.273Z,15.27
2023-05-06T05:54:41.246Z,15.25
2023-05-06T05:55:41.226Z,15.28
2023-05-06T05:56:41.207Z,15.28
2023-05-06T05:57:41.211Z,15.30
2023-05-06T05:58:41.217Z,15.31
2023-05-06T05:59:41.184Z,15.33
2023-05-06T06:00:41.176Z,15.38
2023-05-06T06:01:41.164Z,15.41
2023-05-06T06:02:41.256Z,15.44
2023-05-06T06:03:41.258Z,15.49
2023-05-06T06:04:41.166Z,15.52
2023-05-06T06:05:41.099Z,15.55
2023-05-06T06:06:41.104Z,15.55
2023-05-06T06:07:41.075Z,15.56
2023-05-06T06:08:41.071Z,15.58
2023-05-06T06:09:41.042Z,15.60
2023-05-06T06:10:41.029Z,15.62
2023-05-06T06:11:41.072Z,15.64
2023-05-06T06:12:41.086Z,15.67
2023-05-06T06:13:41.057Z,15.70
2023-05-06T06:14:40.980Z,15.71
2023-05-06T06:15:40.965Z,15.73
2023-05-06T06:16:41.167Z,15.73
2023-05-06T06:17:40.975Z,15.71
2023-05-06T06:18:40.958Z,15.71
2023-05-06T06:19:40.906Z,15.71
2023-05-06T06:20:40.915Z,15.70
2023-05-06T06:21:40.892Z,15.71
2023-05-06T06:22:40.893Z,15.70
2023-05-06T06:23:40.883Z,15.74
2023-05-06T06:24:40.848Z,15.80
2023-05-06T06:25:40.852Z,15.91
2023-05-06T06:26:40.827Z,15.96
2023-05-06T06:27:40.842Z,16.06
2023-05-06T06:28:40.812Z,16.10
2023-05-06T06:29:40.790Z,16.16
2023-05-06T06:30:40.773Z,16.25
2023-05-06T06:31:41.027Z,16.36
2023-05-06T06:32:40.806Z,16.47
2023-05-06T06:33:40.759Z,16.55
2023-05-06T06:34:40.715Z,16.66
2023-05-06T06:35:40.700Z,16.81
2023-05-06T06:36:40.711Z,16.95
2023-05-06T06:37:40.706Z,17.05
2023-05-06T06:38:40.674Z,17.17
2023-05-06T06:39:40.639Z,17.40
2023-05-06T06:40:40.655Z,17.77
2023-05-06T06:41:40.639Z,17.98
2023-05-06T06:42:40.652Z,18.02
2023-05-06T06:43:40.599Z,17.99
2023-05-06T06:44:40.598Z,17.95
2023-05-06T06:45:40.601Z,17.91
2023-05-06T06:46:40.577Z,17.83
2023-05-06T06:47:40.650Z,17.77
2023-05-06T06:48:40.533Z,17.71
2023-05-06T06:49:40.561Z,17.68
2023-05-06T06:50:40.523Z,17.60
2023-05-06T06:51:40.497Z,17.55
2023-05-06T06:52:40.515Z,17.46
2023-05-06T06:53:40.480Z,17.42
2023-05-06T06:54:40.467Z,17.33
2023-05-06T06:55:40.433Z,17.25
2023-05-06T06:56:40.492Z,17.21
2023-05-06T06:57:40.429Z,17.17
2023-05-06T06:58:40.412Z,17.12
2023-05-06T06:59:40.379Z,17.07
2023-05-06T07:00:40.368Z,17.03
2023-05-06T07:01:40.436Z,16.99
2023-05-06T07:02:40.400Z,16.96
2023-05-06T07:03:40.331Z,16.91
2023-05-06T07:04:40.372Z,16.87
2023-05-06T07:05:40.321Z,16.85
2023-05-06T07:06:40.296Z,16.81
2023-05-06T07:07:40.318Z,16.78
2023-05-06T07:08:40.275Z,16.73
2023-05-06T07:09:40.392Z,16.73
2023-05-06T07:10:40.278Z,16.70
2023-05-06T07:11:40.230Z,16.67
2023-05-06T07:12:40.239Z,16.65
2023-05-06T07:13:40.222Z,16.60
2023-05-06T07:14:40.189Z,16.62
2023-05-06T07:15:40.195Z,16.62
2023-05-06T07:16:40.228Z,16.62
2023-05-06T07:17:40.199Z,16.62
2023-05-06T07:18:40.150Z,16.62
2023-05-06T07:19:40.129Z,16.66
2023-05-06T07:20:40.134Z,16.73
2023-05-06T07:21:40.080Z,16.77
2023-05-06T07:22:40.102Z,16.81
2023-05-06T07:23:40.070Z,16.88
2023-05-06T07:24:40.065Z,16.90
2023-05-06T07:25:40.065Z,16.92
2023-05-06T07:26:40.105Z,16.95
2023-05-06T07:27:40.016Z,16.96
2023-05-06T07:28:40.007Z,16.98
2023-05-06T07:29:39.985Z,16.99
2023-05-06T07:30:39.985Z,17.00
2023-05-06T07:31:40.039Z,17.03
2023-05-06T07:32:39.993Z,17.03
2023-05-06T07:33:39.948Z,17.03
2023-05-06T07:34:39.922Z,17.05
2023-05-06T07:35:39.949Z,17.03
2023-05-06T07:36:40.260Z,17.03
2023-05-06T07:37:39.892Z,17.05
2023-05-06T07:38:39.881Z,17.05
2023-05-06T07:39:39.846Z,17.07
2023-05-06T07:40:39.873Z,17.09
2023-05-06T07:41:39.841Z,17.09
2023-05-06T07:42:40.924Z,17.07
2023-05-06T07:43:39.806Z,17.06
2023-05-06T07:44:39.804Z,17.06
2023-05-06T07:45:39.783Z,17.03
2023-05-06T07:46:39.837Z,17.02
2023-05-06T07:47:39.841Z,16.99
2023-05-06T07:48:39.751Z,16.98
2023-05-06T07:49:39.766Z,16.95
2023-05-06T07:50:39.714Z,16.98
2023-05-06T07:51:39.715Z,16.98
2023-05-06T07:52:39.691Z,17.00
2023-05-06T07:53:39.683Z,17.03
2023-05-06T07:54:39.669Z,17.07
2023-05-06T07:55:39.644Z,17.12
2023-05-06T07:56:39.670Z,17.14
2023-05-06T07:57:40.081Z,17.15
2023-05-06T07:58:39.616Z,17.17
2023-05-06T07:59:39.587Z,17.17
2023-05-06T08:00:39.575Z,17.15
2023-05-06T08:01:39.592Z,17.14
2023-05-06T08:02:39.592Z,17.14
2023-05-06T08:03:39.745Z,17.10
2023-05-06T08:04:39.570Z,17.07
2023-05-06T08:05:39.514Z,17.06
2023-05-06T08:06:39.537Z,17.06
2023-05-06T08:07:39.493Z,17.07
2023-05-06T08:08:39.464Z,17.05
2023-05-06T08:09:39.473Z,17.03
2023-05-06T08:10:39.461Z,17.02
2023-05-06T08:11:39.522Z,17.02
2023-05-06T08:12:39.532Z,17.00
2023-05-06T08:13:39.428Z,17.00
2023-05-06T08:14:39.408Z,17.00
2023-05-06T08:15:39.400Z,17.00
2023-05-06T08:16:39.424Z,17.00
2023-05-06T08:17:39.399Z,17.03
2023-05-06T08:18:39.358Z,17.05
2023-05-06T08:19:39.333Z,17.05
2023-05-06T08:20:39.341Z,17.05
2023-05-06T08:21:39.332Z,17.07
2023-05-06T08:22:39.306Z,17.10
2023-05-06T08:23:39.275Z,17.10
2023-05-06T08:24:39.279Z,17.12
2023-05-06T08:25:39.265Z,17.15
2023-05-06T08:26:39.266Z,17.15
2023-05-06T08:27:39.378Z,17.21
2023-05-06T08:28:39.234Z,17.25
2023-05-06T08:29:39.189Z,17.32
2023-05-06T08:30:39.195Z,17.35
2023-05-06T08:31:39.244Z,17.39
2023-05-06T08:32:39.225Z,17.39
2023-05-06T08:33:39.159Z,17.40
2023-05-06T08:34:39.149Z,17.38
2023-05-06T08:35:39.131Z,17.36
2023-05-06T08:36:39.124Z,17.35
2023-05-06T08:37:39.099Z,17.39
2023-05-06T08:38:39.095Z,17.42
2023-05-06T08:39:39.062Z,17.49
2023-05-06T08:40:39.058Z,17.70
2023-05-06T08:41:39.056Z,18.02
2023-05-06T08:42:39.037Z,18.19
2023-05-06T08:43:39.020Z,18.26
2023-05-06T08:44:39.020Z,18.35
2023-05-06T08:45:39.040Z,18.44
2023-05-06T08:46:38.991Z,18.54
2023-05-06T08:47:39.010Z,18.66
2023-05-06T08:48:38.963Z,18.79
2023-05-06T08:49:38.952Z,18.89
2023-05-06T08:50:38.936Z,19.05
2023-05-06T08:51:38.920Z,19.17
2023-05-06T08:52:38.908Z,19.34
2023-05-06T08:53:38.884Z,19.46
2023-05-06T08:54:38.889Z,19.55
2023-05-06T08:55:38.930Z,19.67
2023-05-06T08:56:38.852Z,19.79
2023-05-06T08:57:38.829Z,19.94
2023-05-06T08:58:38.824Z,20.01
2023-05-06T08:59:38.803Z,20.02
2023-05-06T09:00:38.793Z,20.12
2023-05-06T09:01:38.894Z,20.20
2023-05-06T09:02:41.272Z,20.26
2023-05-06T09:03:38.816Z,20.22
2023-05-06T09:04:38.737Z,20.17
2023-05-06T09:05:38.727Z,20.19
2023-05-06T09:06:38.713Z,20.26
2023-05-06T09:07:38.695Z,20.46
2023-05-06T09:08:38.692Z,20.58
2023-05-06T09:09:38.709Z,20.71
2023-05-06T09:10:38.702Z,20.81
2023-05-06T09:11:38.651Z,20.94
2023-05-06T09:12:38.650Z,21.01
2023-05-06T09:13:38.625Z,21.05
2023-05-06T09:14:38.621Z,21.03
2023-05-06T09:15:38.614Z,21.08
2023-05-06T09:16:38.633Z,21.11
2023-05-06T09:17:38.658Z,21.12
2023-05-06T09:18:38.590Z,21.12
2023-05-06T09:19:38.563Z,21.06
2023-05-06T09:20:38.566Z,21.03
2023-05-06T09:21:38.549Z,21.03
2023-05-06T09:22:38.546Z,21.01
2023-05-06T09:23:38.504Z,20.98
2023-05-06T09:24:38.495Z,20.98
2023-05-06T09:25:38.466Z,20.97
2023-05-06T09:26:38.464Z,21.00
2023-05-06T09:27:38.443Z,21.08
2023-05-06T09:28:38.426Z,21.12
2023-05-06T09:29:38.441Z,21.13
2023-05-06T09:30:38.509Z,21.18
2023-05-06T09:31:38.504Z,21.18
2023-05-06T09:32:40.157Z,21.16
2023-05-06T09:33:38.389Z,21.16
2023-05-06T09:34:38.397Z,21.16
2023-05-06T09:35:38.353Z,21.19
2023-05-06T09:36:38.326Z,21.19
2023-05-06T09:37:38.324Z,21.22
2023-05-06T09:38:38.342Z,21.21
2023-05-06T09:39:38.312Z,21.19
2023-05-06T09:40:38.273Z,21.13
2023-05-06T09:41:38.281Z,21.11
2023-05-06T09:42:38.241Z,21.11
2023-05-06T09:43:38.298Z,21.15
2023-05-06T09:44:38.226Z,21.18
2023-05-06T09:45:38.216Z,21.18
2023-05-06T09:46:38.320Z,21.16
2023-05-06T09:47:38.382Z,21.15
2023-05-06T09:48:38.171Z,21.18
2023-05-06T09:49:38.166Z,21.13
2023-05-06T09:50:38.153Z,21.11
2023-05-06T09:51:38.146Z,21.05
2023-05-06T09:52:38.116Z,21.00
2023-05-06T09:53:38.141Z,20.98
2023-05-06T09:54:38.122Z,21.01
2023-05-06T09:55:38.088Z,21.01
2023-05-06T09:56:38.074Z,21.00
2023-05-06T09:57:38.086Z,21.01
2023-05-06T09:58:38.038Z,21.05
2023-05-06T09:59:38.083Z,21.05
2023-05-06T10:00:38.022Z,21.05
2023-05-06T10:01:38.104Z,21.06
2023-05-06T10:02:38.057Z,21.08
2023-05-06T10:03:38.161Z,21.06
2023-05-06T10:04:38.092Z,21.09
2023-05-06T10:05:37.956Z,21.11
2023-05-06T10:06:37.918Z,21.11
2023-05-06T10:07:37.925Z,21.09
2023-05-06T10:08:37.905Z,21.12
2023-05-06T10:09:37.906Z,21.15
2023-05-06T10:10:37.880Z,21.18
2023-05-06T10:11:37.873Z,21.18
2023-05-06T10:12:37.910Z,21.15
2023-05-06T10:13:37.852Z,21.15
2023-05-06T10:14:37.981Z,21.16
2023-05-06T10:15:37.818Z,21.13
2023-05-06T10:16:37.928Z,21.13
2023-05-06T10:17:37.839Z,21.11
2023-05-06T10:18:37.776Z,21.13
2023-05-06T10:19:37.801Z,21.16
2023-05-06T10:20:37.822Z,21.19
2023-05-06T10:21:37.735Z,21.21
2023-05-06T10:22:37.731Z,21.18
2023-05-06T10:23:37.730Z,21.16
2023-05-06T10:24:37.688Z,21.19
2023-05-06T10:25:37.697Z,21.18
2023-05-06T10:26:37.695Z,21.18
2023-05-06T10:27:37.727Z,21.19
2023-05-06T10:28:37.651Z,21.30
2023-05-06T10:29:37.657Z,21.55
2023-05-06T10:30:37.609Z,21.68
2023-05-06T10:31:37.618Z,21.75
2023-05-06T10:32:37.596Z,21.82
2023-05-06T10:33:38.007Z,21.89
2023-05-06T10:34:37.574Z,21.94
2023-05-06T10:35:37.563Z,21.98
2023-05-06T10:36:37.533Z,21.98
2023-05-06T10:37:37.535Z,21.99
2023-05-06T10:38:37.515Z,22.06
2023-05-06T10:39:42.359Z,22.20
2023-05-06T10:40:39.769Z,22.35
2023-05-06T10:41:39.830Z,22.56
2023-05-06T10:42:41.026Z,22.75
2023-05-06T10:43:41.454Z,22.85
2023-05-06T10:44:40.396Z,22.85
2023-05-06T10:45:37.517Z,22.88
2023-05-06T10:46:37.401Z,22.85
2023-05-06T10:47:37.435Z,22.93
2023-05-06T10:48:37.403Z,23.04
2023-05-06T10:49:37.394Z,23.16
2023-05-06T10:50:37.361Z,23.23
2023-05-06T10:51:37.339Z,23.35
2023-05-06T10:52:37.338Z,23.23
2023-05-06T10:53:37.307Z,23.19
2023-05-06T10:54:37.300Z,23.11
2023-05-06T10:55:37.300Z,23.04
2023-05-06T10:56:37.285Z,23.09
2023-05-06T10:57:37.257Z,23.16
2023-05-06T10:58:37.237Z,23.23
2023-05-06T10:59:37.260Z,23.35
2023-05-06T11:00:37.221Z,23.41
2023-05-06T11:01:37.413Z,23.39
2023-05-06T11:02:37.243Z,23.38
2023-05-06T11:03:37.206Z,23.31
2023-05-06T11:04:37.220Z,23.26
2023-05-06T11:05:37.154Z,23.21
2023-05-06T11:06:37.151Z,23.18
2023-05-06T11:07:37.131Z,23.09
2023-05-06T11:08:37.127Z,23.03
2023-05-06T11:09:37.153Z,22.91
2023-05-06T11:10:37.118Z,22.81
2023-05-06T11:11:37.106Z,22.78
2023-05-06T11:12:37.110Z,22.76
2023-05-06T11:13:37.076Z,22.74
2023-05-06T11:14:37.051Z,22.69
2023-05-06T11:15:37.051Z,22.72
2023-05-06T11:16:38.680Z,22.76
2023-05-06T11:17:37.020Z,22.79
2023-05-06T11:18:36.978Z,22.79
2023-05-06T11:19:36.993Z,22.85
2023-05-06T11:20:36.947Z,22.93
2023-05-06T11:21:36.955Z,22.96
2023-05-06T11:22:36.933Z,23.03
2023-05-06T11:23:36.953Z,22.99
2023-05-06T11:24:36.907Z,22.96
2023-05-06T11:25:36.932Z,22.84
2023-05-06T11:26:36.874Z,22.72
2023-05-06T11:27:36.893Z,22.61
2023-05-06T11:28:36.849Z,22.56
2023-05-06T11:29:36.882Z,22.49
2023-05-06T11:30:36.818Z,22.48
2023-05-06T11:31:36.904Z,22.48
2023-05-06T11:32:36.806Z,22.45
2023-05-06T11:33:36.777Z,22.44
2023-05-06T11:34:36.836Z,22.45
2023-05-06T11:35:36.834Z,22.52
2023-05-06T11:36:36.759Z,22.66
2023-05-06T11:37:36.800Z,22.69
2023-05-06T11:38:36.714Z,22.67
2023-05-06T11:39:40.306Z,22.56
2023-05-06T11:40:36.727Z,22.63
2023-05-06T11:41:36.691Z,22.60
2023-05-06T11:42:36.698Z,22.56
2023-05-06T11:43:36.686Z,22.52
2023-05-06T11:44:36.648Z,22.64
2023-05-06T11:45:36.717Z,22.72
2023-05-06T11:46:36.655Z,22.76
2023-05-06T11:47:36.686Z,22.76
2023-05-06T11:48:36.590Z,22.66
2023-05-06T11:49:36.963Z,22.57
2023-05-06T11:50:36.568Z,22.48
2023-05-06T11:51:36.552Z,22.46
2023-05-06T11:52:36.537Z,22.56
2023-05-06T11:53:36.533Z,22.64
2023-05-06T11:54:36.531Z,22.74
2023-05-06T11:55:36.496Z,22.75
2023-05-06T11:56:36.517Z,22.84
2023-05-06T11:57:36.466Z,22.88
2023-05-06T11:58:36.456Z,22.78
2023-05-06T11:59:36.453Z,22.67
2023-05-06T12:00:36.527Z,22.60
2023-05-06T12:01:36.433Z,22.52
2023-05-06T12:02:36.451Z,22.45
2023-05-06T12:03:36.523Z,22.39
2023-05-06T12:04:36.426Z,22.31
2023-05-06T12:05:36.376Z,22.24
2023-05-06T12:06:36.376Z,22.14
2023-05-06T12:07:36.347Z,22.04
2023-05-06T12:08:36.355Z,21.96
2023-05-06T12:09:36.332Z,21.90
2023-05-06T12:10:36.307Z,21.89
2023-05-06T12:11:36.282Z,21.85
2023-05-06T12:12:36.297Z,21.77
2023-05-06T12:13:36.260Z,21.67
2023-05-06T12:14:36.284Z,21.58
2023-05-06T12:15:36.241Z,21.52
2023-05-06T12:16:36.256Z,21.63
2023-05-06T12:17:36.233Z,21.66
2023-05-06T12:18:36.255Z,21.67
2023-05-06T12:19:36.197Z,21.64
2023-05-06T12:20:36.177Z,21.61
2023-05-06T12:21:36.165Z,21.63
2023-05-06T12:22:36.149Z,21.73
2023-05-06T12:23:36.152Z,21.85
2023-05-06T12:24:36.136Z,21.93
2023-05-06T12:25:36.108Z,22.05
2023-05-06T12:26:36.107Z,22.14
2023-05-06T12:27:36.241Z,22.26
2023-05-06T12:28:36.069Z,22.31
2023-05-06T12:29:36.078Z,22.30
2023-05-06T12:30:36.056Z,22.26
2023-05-06T12:31:36.117Z,22.20
2023-05-06T12:32:36.068Z,22.14
2023-05-06T12:33:36.009Z,22.08
2023-05-06T12:34:35.989Z,22.02
2023-05-06T12:35:36.016Z,21.91
2023-05-06T12:36:35.972Z,21.79
2023-05-06T12:37:36.016Z,21.73
2023-05-06T12:38:35.929Z,21.68
2023-05-06T12:39:35.981Z,21.70
2023-05-06T12:40:35.941Z,21.67
2023-05-06T12:41:35.907Z,21.68
2023-05-06T12:42:35.887Z,21.82
2023-05-06T12:43:35.874Z,21.96
2023-05-06T12:44:35.885Z,22.12
2023-05-06T12:45:35.921Z,22.29
2023-05-06T12:46:35.845Z,22.42
2023-05-06T12:47:35.850Z,22.56
2023-05-06T12:48:35.856Z,22.69
2023-05-06T12:49:35.788Z,22.79
2023-05-06T12:50:35.799Z,22.88
2023-05-06T12:51:35.761Z,22.85
2023-05-06T12:52:35.755Z,22.75